Time;durP1;ratioP1;P1;durP2;ratioP2;P2;SDS_P1;SDS_P2;PMS_P1;PMS_P2;Temp;Humidity;BMP_temperature;BMP_pressure;BME280_temperature;BME280_humidity;BME280_pressure;Samples;Min_cycle;Max_cycle;Signal;HPM_P1;HPM_P2
2023/05/12 00:00:13;;;;;;;;;;;;;;;;;;4959499;28;19944;-69
2023/05/12 00:02:39;;;;;;;;;;;;;;;;;;4957569;28;19918;-69
2023/05/12 00:05:04;;;;;;;;;;;;;;;;;;4963193;28;19929;-70
2023/05/12 00:07:30;;;;;;;;;;;;;;;;;;4963736;28;19922;-70
2023/05/12 00:09:55;;;;;;;;;;;;;;;;;;4948054;28;19976;-70
2023/05/12 00:12:20;;;;;;;;;;;;;;;;;;4965792;28;20385;-70
2023/05/12 00:14:46;;;;;;;;;;;;;;;;;;4964589;28;19991;-71
2023/05/12 00:17:16;;;;;;;;;;;;;;;;;;4976889;28;19997;-71
2023/05/12 00:19:42;;;;;;;;;;;;;;;;;;4976969;28;20299;-70
2023/05/12 00:22:08;;;;;;;;;;;;;;;;;;4978075;28;20423;-72
2023/05/12 00:24:36;;;;;;;;;;;;;;;;;;4949804;28;19932;-70
2023/05/12 00:27:01;;;;;;;;;;;;;;;;;;4947815;28;20012;-70
2023/05/12 00:29:27;;;;;;;;;;;;;;;;;;4950207;28;19925;-71
2023/05/12 00:31:52;;;;;;;;;;;;;;;;;;4975308;28;19929;-70
2023/05/12 00:34:18;;;;;;;;;;;;;;;;;;4974042;28;20011;-70
2023/05/12 00:36:43;;;;;;;;;;;;;;;;;;4943906;28;20077;-68
2023/05/12 00:39:09;;;;;;;;;;;;;;;;;;4972692;28;20478;-69
2023/05/12 00:41:34;;;;;;;;;;;;;;;;;;4958744;28;19957;-71
2023/05/12 00:44:00;;;;;;;;;;;;;;;;;;4969565;28;19934;-70
2023/05/12 00:46:26;;;;;;;;;;;;;;;;;;4949071;28;19922;-71
2023/05/12 00:48:51;;;;;;;;;;;;;;;;;;4976616;28;20374;-71
2023/05/12 00:51:17;;;;;;;;;;;;;;;;;;4959995;28;20483;-70
2023/05/12 00:53:42;;;;;;;;;;;;;;;;;;4953484;28;19936;-72
2023/05/12 00:56:10;;;;;;;;;;;;;;;;;;4950630;28;19926;-69
2023/05/12 00:58:35;;;;;;;;;;;;;;;;;;4947912;28;19929;-71
2023/05/12 01:01:03;;;;;;;;;;;;;;;;;;4957939;28;19929;-70
2023/05/12 01:03:29;;;;;;;;;;;;;;;;;;4963803;28;19921;-70
2023/05/12 01:05:57;;;;;;;;;;;;;;;;;;4964272;28;19934;-71
2023/05/12 01:08:22;;;;;;;;;;;;;;;;;;4962582;28;20362;-72
2023/05/12 01:10:51;;;;;;;;;;;;;;;;;;4965696;28;19984;-72
2023/05/12 01:13:16;;;;;;;;;;;;;;;;;;4962602;28;20490;-70
2023/05/12 01:15:41;;;;;;;;;;;;;;;;;;4954744;28;19918;-72
2023/05/12 01:18:09;;;;;;;;;;;;;;;;;;4946242;28;20045;-69
2023/05/12 01:20:37;;;;;;;;;;;;;;;;;;4960060;28;19921;-71
2023/05/12 01:23:06;;;;;;;;;;;;;;;;;;4948770;28;20146;-71
2023/05/12 01:25:31;;;;;;;;;;;;;;;;;;4948846;28;19921;-71
2023/05/12 01:27:56;;;;;;;;;;;;;;;;;;4958601;28;20056;-71
2023/05/12 01:30:22;;;;;;;;;;;;;;;;;;4960276;28;20477;-71
2023/05/12 01:32:47;;;;;;;;;;;;;;;;;;4954834;28;19944;-72
2023/05/12 01:35:13;;;;;;;;;;;;;;;;;;4973535;28;19929;-71
2023/05/12 01:37:38;;;;;;;;;;;;;;;;;;4975482;28;20381;-72
2023/05/12 01:40:06;;;;;;;;;;;;;;;;;;4974561;28;19917;-72
2023/05/12 01:42:34;;;;;;;;;;;;;;;;;;4976863;28;19917;-71
2023/05/12 01:45:02;;;;;;;;;;;;;;;;;;4942430;28;20012;-71
2023/05/12 01:47:30;;;;;;;;;;;;;;;;;;4975701;28;19924;-72
2023/05/12 01:49:55;;;;;;;;;;;;;;;;;;4956936;28;19960;-71
2023/05/12 01:52:21;;;;;;;;;;;;;;;;;;4948328;28;19921;-71
2023/05/12 01:54:50;;;;;;;;;;;;;;;;;;4947966;28;20004;-71
2023/05/12 01:57:15;;;;;;;;;;;;;;;;;;4961748;28;20054;-71
2023/05/12 01:59:43;;;;;;;;;;;;;;;;;;4948575;28;19922;-71
2023/05/12 02:02:08;;;;;;;;;;;;;;;;;;4962265;28;19922;-70
2023/05/12 02:04:34;;;;;;;;;;;;;;;;;;4945426;28;20357;-70
2023/05/12 02:06:59;;;;;;;;;;;;;;;;;;4975934;28;19976;-72
2023/05/12 02:09:29;;;;;;;;;;;;;;;;;;4960220;28;20008;-71
2023/05/12 02:12:01;;;;;;;;;;;;;;;;;;4973859;28;19928;-72
2023/05/12 02:14:26;;;;;;;;;;;;;;;;;;4962681;28;19918;-71
2023/05/12 02:16:54;;;;;;;;;;;;;;;;;;4960742;28;19925;-72
2023/05/12 02:19:23;;;;;;;;;;;;;;;;;;4957241;28;19925;-70
2023/05/12 02:21:50;;;;;;;;;;;;;;;;;;4959000;28;20484;-71
2023/05/12 02:24:21;;;;;;;;;;;;;;;;;;4961767;28;19995;-72
2023/05/12 02:26:49;;;;;;;;;;;;;;;;;;4973618;28;20341;-71
2023/05/12 02:29:14;;;;;;;;;;;;;;;;;;4972910;28;19963;-70
2023/05/12 02:31:40;;;;;;;;;;;;;;;;;;4973037;28;20442;-70
2023/05/12 02:34:05;;;;;;;;;;;;;;;;;;4945182;28;20088;-69
2023/05/12 02:36:33;;;;;;;;;;;;;;;;;;4959402;28;19925;-72
2023/05/12 02:38:58;;;;;;;;;;;;;;;;;;4961719;28;19929;-71
2023/05/12 02:41:24;;;;;;;;;;;;;;;;;;4970483;28;19917;-70
2023/05/12 02:43:49;;;;;;;;;;;;;;;;;;4946956;28;20662;-71
2023/05/12 02:46:14;;;;;;;;;;;;;;;;;;4970096;28;19921;-72
2023/05/12 02:48:42;;;;;;;;;;;;;;;;;;4959491;28;20060;-72
2023/05/12 02:51:11;;;;;;;;;;;;;;;;;;4954848;28;20019;-73
2023/05/12 02:53:36;;;;;;;;;;;;;;;;;;4961987;28;20044;-71
2023/05/12 02:56:04;;;;;;;;;;;;;;;;;;4947232;28;21992;-70
2023/05/12 02:58:29;;;;;;;;;;;;;;;;;;4954776;28;19922;-72
2023/05/12 03:00:54;;;;;;;;;;;;;;;;;;4960218;28;19929;-70
2023/05/12 03:03:20;;;;;;;;;;;;;;;;;;4972928;28;19987;-70
2023/05/12 03:05:51;;;;;;;;;;;;;;;;;;4950948;28;19929;-71
2023/05/12 03:08:19;;;;;;;;;;;;;;;;;;4959195;28;20011;-70
2023/05/12 03:10:45;;;;;;;;;;;;;;;;;;4946787;28;19933;-71
2023/05/12 03:13:10;;;;;;;;;;;;;;;;;;4961257;28;19921;-72
2023/05/12 03:15:40;;;;;;;;;;;;;;;;;;4966878;28;19953;-71
2023/05/12 03:18:05;;;;;;;;;;;;;;;;;;4974460;28;19933;-71
2023/05/12 03:20:36;;;;;;;;;;;;;;;;;;4952447;28;20281;-71
2023/05/12 03:23:06;;;;;;;;;;;;;;;;;;4975312;28;19980;-70
2023/05/12 03:25:33;;;;;;;;;;;;;;;;;;4978344;28;19980;-70
2023/05/12 03:27:59;;;;;;;;;;;;;;;;;;4945610;28;19928;-70
2023/05/12 03:30:24;;;;;;;;;;;;;;;;;;4950525;28;20495;-70
2023/05/12 03:32:49;;;;;;;;;;;;;;;;;;4959366;28;20388;-70
2023/05/12 03:35:17;;;;;;;;;;;;;;;;;;4947163;28;19921;-71
2023/05/12 03:37:42;;;;;;;;;;;;;;;;;;4974033;28;20166;-71
2023/05/12 03:40:07;;;;;;;;;;;;;;;;;;4965339;28;19964;-69
2023/05/12 03:42:36;;;;;;;;;;;;;;;;;;4959599;28;19922;-69
2023/05/12 03:45:01;;;;;;;;;;;;;;;;;;4975486;28;19922;-70
2023/05/12 03:47:26;;;;;;;;;;;;;;;;;;4964674;28;19925;-70
2023/05/12 03:49:54;;;;;;;;;;;;;;;;;;4947580;28;20918;-70
2023/05/12 03:52:22;;;;;;;;;;;;;;;;;;4974253;28;19917;-71
2023/05/12 03:54:50;;;;;;;;;;;;;;;;;;4943630;28;20301;-71
2023/05/12 03:57:18;;;;;;;;;;;;;;;;;;4965143;28;20340;-72
2023/05/12 03:59:46;;;;;;;;;;;;;;;;;;4974285;28;20511;-72
2023/05/12 04:02:14;;;;;;;;;;;;;;;;;;4948250;28;19932;-72
2023/05/12 04:04:39;;;;;;;;;;;;;;;;;;4956160;28;19926;-71
2023/05/12 04:07:04;;;;;;;;;;;;;;;;;;4975496;28;19926;-71
2023/05/12 04:09:30;;;;;;;;;;;;;;;;;;4972861;28;19921;-71
2023/05/12 04:11:55;;;;;;;;;;;;;;;;;;4973654;28;20092;-72
2023/05/12 04:14:23;;;;;;;;;;;;;;;;;;4957028;28;21479;-72
2023/05/12 04:16:48;;;;;;;;;;;;;;;;;;4959060;28;19980;-71
2023/05/12 04:19:15;;;;;;;;;;;;;;;;;;4964074;28;20470;-71
2023/05/12 04:21:43;;;;;;;;;;;;;;;;;;4966632;28;20128;-72
2023/05/12 04:24:11;;;;;;;;;;;;;;;;;;4963921;28;19985;-71
2023/05/12 04:26:36;;;;;;;;;;;;;;;;;;4951743;28;19922;-70
2023/05/12 04:29:02;;;;;;;;;;;;;;;;;;4975233;28;19932;-71
2023/05/12 04:31:27;;;;;;;;;;;;;;;;;;4961461;28;19985;-72
2023/05/12 04:33:54;;;;;;;;;;;;;;;;;;4957777;28;19917;-72
2023/05/12 04:36:22;;;;;;;;;;;;;;;;;;4950958;28;20246;-71
2023/05/12 04:38:47;;;;;;;;;;;;;;;;;;4960035;28;20008;-70
2023/05/12 04:41:13;;;;;;;;;;;;;;;;;;4946977;28;19929;-71
2023/05/12 04:43:38;;;;;;;;;;;;;;;;;;4965719;28;19925;-72
2023/05/12 04:46:06;;;;;;;;;;;;;;;;;;4978708;28;19922;-71
2023/05/12 04:48:33;;;;;;;;;;;;;;;;;;4976370;28;20064;-72
2023/05/12 04:51:01;;;;;;;;;;;;;;;;;;4965540;28;19918;-72
2023/05/12 04:53:26;;;;;;;;;;;;;;;;;;4965053;28;19956;-72
2023/05/12 04:55:51;;;;;;;;;;;;;;;;;;4948179;28;20400;-71
2023/05/12 04:58:19;;;;;;;;;;;;;;;;;;4958333;28;20027;-72
2023/05/12 05:00:47;;;;;;;;;;;;;;;;;;4950333;28;19961;-71
2023/05/12 05:03:12;;;;;;;;;;;;;;;;;;4947453;28;20505;-71
2023/05/12 05:05:40;;;;;;;;;;;;;;;;;;4963024;28;20031;-72
2023/05/12 05:08:05;;;;;;;;;;;;;;;;;;4945729;28;19964;-72
2023/05/12 05:10:31;;;;;;;;;;;;;;;;;;4949149;28;20482;-72
2023/05/12 05:12:56;;;;;;;;;;;;;;;;;;4963010;28;21327;-72
2023/05/12 05:15:21;;;;;;;;;;;;;;;;;;4966013;28;19946;-73
2023/05/12 05:17:49;;;;;;;;;;;;;;;;;;4964797;28;20024;-73
2023/05/12 05:20:17;;;;;;;;;;;;;;;;;;4978607;28;20284;-73
2023/05/12 05:22:43;;;;;;;;;;;;;;;;;;4957903;28;19922;-73
2023/05/12 05:25:09;;;;;;;;;;;;;;;;;;4948481;28;20347;-72
2023/05/12 05:27:34;;;;;;;;;;;;;;;;;;4966569;28;19917;-73
2023/05/12 05:29:59;;;;;;;;;;;;;;;;;;4974537;28;19929;-73
2023/05/12 05:32:25;;;;;;;;;;;;;;;;;;4942309;28;19921;-72
2023/05/12 05:34:53;;;;;;;;;;;;;;;;;;4959251;28;19918;-73
2023/05/12 05:37:21;;;;;;;;;;;;;;;;;;4947551;28;19927;-73
2023/05/12 05:39:48;;;;;;;;;;;;;;;;;;4959476;28;19917;-72
2023/05/12 05:42:14;;;;;;;;;;;;;;;;;;4975659;28;19918;-72
2023/05/12 05:44:40;;;;;;;;;;;;;;;;;;4956589;28;19976;-71
2023/05/12 05:47:07;;;;;;;;;;;;;;;;;;4947141;28;19922;-72
2023/05/12 05:49:35;;;;;;;;;;;;;;;;;;4941481;28;20905;-73
2023/05/12 05:52:01;;;;;;;;;;;;;;;;;;4971530;28;20016;-75
2023/05/12 05:54:26;;;;;;;;;;;;;;;;;;4953550;28;19922;-74
2023/05/12 05:56:54;;;;;;;;;;;;;;;;;;4947418;28;19929;-73
2023/05/12 05:59:23;;;;;;;;;;;;;;;;;;4957322;28;19918;-75
2023/05/12 06:01:51;;;;;;;;;;;;;;;;;;4960537;28;20044;-72
2023/05/12 06:04:18;;;;;;;;;;;;;;;;;;4947563;28;19925;-73
2023/05/12 06:06:46;;;;;;;;;;;;;;;;;;4948930;28;19925;-73
2023/05/12 06:09:15;;;;;;;;;;;;;;;;;;4975665;28;20193;-72
2023/05/12 06:11:50;;;;;;;;;;;;;;;;;;4976002;28;19929;-74
2023/05/12 06:14:16;;;;;;;;;;;;;;;;;;4974140;28;19922;-73
2023/05/12 06:16:41;;;;;;;;;;;;;;;;;;4947076;28;20012;-73
2023/05/12 06:19:08;;;;;;;;;;;;;;;;;;4973530;28;20144;-73
2023/05/12 06:21:34;;;;;;;;;;;;;;;;;;4944879;28;19922;-73
2023/05/12 06:24:00;;;;;;;;;;;;;;;;;;4962156;28;20245;-74
2023/05/12 06:26:27;;;;;;;;;;;;;;;;;;4974686;28;19922;-74
2023/05/12 06:28:55;;;;;;;;;;;;;;;;;;4947794;28;21593;-72
2023/05/12 06:31:20;;;;;;;;;;;;;;;;;;4961100;28;19928;-72
2023/05/12 06:33:46;;;;;;;;;;;;;;;;;;4971331;28;20079;-72
2023/05/12 06:36:11;;;;;;;;;;;;;;;;;;4959105;28;20512;-73
2023/05/12 06:38:42;;;;;;;;;;;;;;;;;;4944156;28;20296;-75
2023/05/12 06:41:10;;;;;;;;;;;;;;;;;;4972776;28;20289;-72
2023/05/12 06:43:35;;;;;;;;;;;;;;;;;;4963731;28;19925;-72
2023/05/12 06:46:03;;;;;;;;;;;;;;;;;;4965598;28;20274;-72
2023/05/12 06:48:28;;;;;;;;;;;;;;;;;;4974561;28;19976;-71
2023/05/12 06:50:53;;;;;;;;;;;;;;;;;;4944584;28;19971;-71
2023/05/12 06:53:25;;;;;;;;;;;;;;;;;;4949221;28;19980;-72
2023/05/12 06:55:52;;;;;;;;;;;;;;;;;;4954472;28;19922;-72
2023/05/12 06:58:18;;;;;;;;;;;;;;;;;;4957768;28;20350;-72
2023/05/12 07:00:46;;;;;;;;;;;;;;;;;;4956976;28;19924;-72
2023/05/12 07:03:13;;;;;;;;;;;;;;;;;;4956350;28;20464;-72
2023/05/12 07:05:40;;;;;;;;;;;;;;;;;;4941785;28;20023;-73
2023/05/12 07:08:05;;;;;;;;;;;;;;;;;;4947691;28;19999;-71
2023/05/12 07:10:34;;;;;;;;;;;;;;;;;;4947946;28;19921;-71
2023/05/12 07:13:01;;;;;;;;;;;;;;;;;;4974630;28;20418;-73
2023/05/12 07:15:27;;;;;;;;;;;;;;;;;;4960641;28;20259;-71
2023/05/12 07:17:55;;;;;;;;;;;;;;;;;;4973512;28;19928;-72
2023/05/12 07:20:20;;;;;;;;;;;;;;;;;;4973126;28;20327;-73
2023/05/12 07:22:50;;;;;;;;;;;;;;;;;;4943572;28;21538;-72
2023/05/12 07:25:15;;;;;;;;;;;;;;;;;;4949329;28;19918;-70
2023/05/12 07:27:41;;;;;;;;;;;;;;;;;;4974729;28;19928;-71
2023/05/12 07:30:06;;;;;;;;;;;;;;;;;;4963006;28;19921;-70
2023/05/12 07:32:31;;;;;;;;;;;;;;;;;;4961882;28;19939;-70
2023/05/12 07:34:57;;;;;;;;;;;;;;;;;;4960345;28;19988;-71
2023/05/12 07:37:22;;;;;;;;;;;;;;;;;;4946396;28;19976;-72
2023/05/12 07:39:48;;;;;;;;;;;;;;;;;;4958189;28;20349;-70
2023/05/12 07:42:13;;;;;;;;;;;;;;;;;;4973266;28;19921;-71
2023/05/12 07:44:39;;;;;;;;;;;;;;;;;;4974901;28;20654;-71
2023/05/12 07:47:04;;;;;;;;;;;;;;;;;;4974728;28;19922;-72
2023/05/12 07:49:32;;;;;;;;;;;;;;;;;;4956896;28;19927;-69
2023/05/12 07:51:57;;;;;;;;;;;;;;;;;;4960420;28;19948;-71
2023/05/12 07:54:23;;;;;;;;;;;;;;;;;;4948548;28;19972;-69
2023/05/12 07:56:50;;;;;;;;;;;;;;;;;;4977470;28;19929;-71
2023/05/12 07:59:16;;;;;;;;;;;;;;;;;;4978392;28;20401;-72
2023/05/12 08:01:44;;;;;;;;;;;;;;;;;;4976630;28;20456;-70
2023/05/12 08:04:12;;;;;;;;;;;;;;;;;;4964664;28;19922;-72
2023/05/12 08:06:40;;;;;;;;;;;;;;;;;;4962858;28;19937;-69
2023/05/12 08:09:06;;;;;;;;;;;;;;;;;;4957264;28;19918;-68
2023/05/12 08:11:31;;;;;;;;;;;;;;;;;;4963258;28;19964;-68
2023/05/12 08:13:56;;;;;;;;;;;;;;;;;;4957321;28;19925;-68
2023/05/12 08:16:22;;;;;;;;;;;;;;;;;;4955895;28;19944;-68
2023/05/12 08:18:50;;;;;;;;;;;;;;;;;;4947270;28;19984;-68
2023/05/12 08:21:15;;;;;;;;;;;;;;;;;;4958745;28;19917;-69
2023/05/12 08:23:41;;;;;;;;;;;;;;;;;;4960190;28;20294;-68
2023/05/12 08:26:06;;;;;;;;;;;;;;;;;;4961246;28;19945;-68
2023/05/12 08:28:32;;;;;;;;;;;;;;;;;;4958496;28;19922;-67
2023/05/12 08:30:57;;;;;;;;;;;;;;;;;;4960736;28;19921;-68
2023/05/12 08:33:23;;;;;;;;;;;;;;;;;;4954072;28;20352;-68
2023/05/12 08:35:48;;;;;;;;;;;;;;;;;;4956672;28;19922;-68
2023/05/12 08:38:13;;;;;;;;;;;;;;;;;;4946700;28;19922;-69
2023/05/12 08:40:38;;;;;;;;;;;;;;;;;;4960802;28;21599;-68
2023/05/12 08:43:04;;;;;;;;;;;;;;;;;;4954645;28;20275;-67
2023/05/12 08:45:29;;;;;;;;;;;;;;;;;;4956227;28;19922;-68
2023/05/12 08:47:55;;;;;;;;;;;;;;;;;;4954082;28;20435;-69
2023/05/12 08:50:23;;;;;;;;;;;;;;;;;;4957594;28;19926;-68
2023/05/12 08:52:48;;;;;;;;;;;;;;;;;;4943462;28;19992;-67
2023/05/12 08:55:14;;;;;;;;;;;;;;;;;;4956875;28;20743;-68
2023/05/12 08:57:44;;;;;;;;;;;;;;;;;;4959358;28;20016;-67
2023/05/12 09:00:09;;;;;;;;;;;;;;;;;;4958862;28;19937;-67
2023/05/12 09:02:34;;;;;;;;;;;;;;;;;;4948788;28;19926;-67
2023/05/12 09:05:00;;;;;;;;;;;;;;;;;;4956212;28;19941;-67
2023/05/12 09:07:26;;;;;;;;;;;;;;;;;;4959630;28;20115;-66
2023/05/12 09:09:51;;;;;;;;;;;;;;;;;;4958514;28;19953;-67
2023/05/12 09:12:20;;;;;;;;;;;;;;;;;;4960227;28;20397;-66
2023/05/12 09:14:48;;;;;;;;;;;;;;;;;;4975406;28;20469;-67
2023/05/12 09:17:13;;;;;;;;;;;;;;;;;;4957971;28;19921;-67
2023/05/12 09:19:41;;;;;;;;;;;;;;;;;;4962378;28;20554;-64
2023/05/12 09:22:13;;;;;;;;;;;;;;;;;;4961391;28;20015;-65
2023/05/12 09:24:39;;;;;;;;;;;;;;;;;;4950775;28;19921;-65
2023/05/12 09:27:06;;;;;;;;;;;;;;;;;;4963711;28;19918;-66
2023/05/12 09:29:32;;;;;;;;;;;;;;;;;;4976542;28;19929;-65
2023/05/12 09:31:58;;;;;;;;;;;;;;;;;;4949490;28;19940;-66
2023/05/12 09:34:26;;;;;;;;;;;;;;;;;;4963271;28;20541;-65
2023/05/12 09:36:51;;;;;;;;;;;;;;;;;;4947874;28;19922;-69
2023/05/12 09:39:17;;;;;;;;;;;;;;;;;;4963993;28;19965;-65
2023/05/12 09:41:45;;;;;;;;;;;;;;;;;;4958346;28;19984;-66
2023/05/12 09:44:12;;;;;;;;;;;;;;;;;;4962693;28;20078;-66
2023/05/12 09:46:38;;;;;;;;;;;;;;;;;;4945035;28;19920;-66
2023/05/12 09:49:04;;;;;;;;;;;;;;;;;;4962992;28;20311;-66
2023/05/12 09:51:32;;;;;;;;;;;;;;;;;;4964008;28;21501;-67
2023/05/12 09:53:59;;;;;;;;;;;;;;;;;;4974748;28;19932;-66
2023/05/12 09:56:27;;;;;;;;;;;;;;;;;;4949784;28;19922;-65
2023/05/12 09:58:53;;;;;;;;;;;;;;;;;;4961573;28;19917;-66
2023/05/12 10:01:18;;;;;;;;;;;;;;;;;;4961455;28;20302;-65
2023/05/12 10:03:47;;;;;;;;;;;;;;;;;;4956274;28;19976;-65
2023/05/12 10:06:13;;;;;;;;;;;;;;;;;;4963582;28;19934;-66
2023/05/12 10:08:41;;;;;;;;;;;;;;;;;;4964202;28;19940;-65
2023/05/12 10:11:06;;;;;;;;;;;;;;;;;;4971843;28;20020;-65
2023/05/12 10:13:35;;;;;;;;;;;;;;;;;;4951755;28;19947;-64
2023/05/12 10:16:00;;;;;;;;;;;;;;;;;;4945329;28;20361;-64
2023/05/12 10:18:28;;;;;;;;;;;;;;;;;;4974612;28;19976;-64
2023/05/12 10:20:56;;;;;;;;;;;;;;;;;;4959826;28;19984;-65
2023/05/12 10:23:21;;;;;;;;;;;;;;;;;;4961788;28;19984;-66
2023/05/12 10:25:49;;;;;;;;;;;;;;;;;;4965514;28;19930;-65
2023/05/12 10:28:19;;;;;;;;;;;;;;;;;;4960872;28;19929;-66
2023/05/12 10:30:45;;;;;;;;;;;;;;;;;;4974317;28;19944;-66
2023/05/12 10:33:10;;;;;;;;;;;;;;;;;;4973120;28;20561;-69
2023/05/12 10:35:36;;;;;;;;;;;;;;;;;;4949985;28;19961;-65
2023/05/12 10:38:04;;;;;;;;;;;;;;;;;;4958359;28;20192;-66
2023/05/12 10:40:29;;;;;;;;;;;;;;;;;;4956951;28;19922;-66
2023/05/12 10:42:57;;;;;;;;;;;;;;;;;;4957896;28;19925;-64
2023/05/12 10:45:23;;;;;;;;;;;;;;;;;;4973864;28;20114;-65
2023/05/12 10:47:48;;;;;;;;;;;;;;;;;;4961977;28;19964;-65
2023/05/12 10:50:13;;;;;;;;;;;;;;;;;;4959332;28;20024;-64
2023/05/12 10:52:38;;;;;;;;;;;;;;;;;;4955959;28;19921;-66
2023/05/12 10:55:04;;;;;;;;;;;;;;;;;;4958052;28;20366;-67
2023/05/12 10:57:29;;;;;;;;;;;;;;;;;;4975504;28;19956;-65
2023/05/12 10:59:57;;;;;;;;;;;;;;;;;;4974483;28;20034;-63
2023/05/12 11:02:29;;;;;;;;;;;;;;;;;;4947631;28;19932;-65
2023/05/12 11:04:56;;;;;;;;;;;;;;;;;;4958574;28;20002;-64
2023/05/12 11:07:22;;;;;;;;;;;;;;;;;;4956489;28;19988;-64
2023/05/12 11:09:47;;;;;;;;;;;;;;;;;;4956831;28;21495;-63
2023/05/12 11:12:12;;;;;;;;;;;;;;;;;;4955131;28;19918;-66
2023/05/12 11:14:41;;;;;;;;;;;;;;;;;;4973566;28;20412;-64
2023/05/12 11:17:06;;;;;;;;;;;;;;;;;;4975560;28;19929;-65
2023/05/12 11:19:32;;;;;;;;;;;;;;;;;;4945777;28;20115;-64
2023/05/12 11:22:00;;;;;;;;;;;;;;;;;;4952268;28;19921;-65
2023/05/12 11:24:25;;;;;;;;;;;;;;;;;;4962897;28;20305;-64
2023/05/12 11:26:51;;;;;;;;;;;;;;;;;;4951008;28;19921;-63
2023/05/12 11:29:19;;;;;;;;;;;;;;;;;;4962022;28;19932;-65
2023/05/12 11:31:44;;;;;;;;;;;;;;;;;;4977571;28;20440;-65
2023/05/12 11:34:10;;;;;;;;;;;;;;;;;;4948651;28;20365;-65
2023/05/12 11:36:38;;;;;;;;;;;;;;;;;;4961166;28;19921;-66
2023/05/12 11:39:06;;;;;;;;;;;;;;;;;;4966280;28;19922;-64
2023/05/12 11:41:36;;;;;;;;;;;;;;;;;;4979444;28;20051;-64
2023/05/12 11:44:04;;;;;;;;;;;;;;;;;;4957647;28;20016;-64
2023/05/12 11:46:32;;;;;;;;;;;;;;;;;;4964011;28;19921;-63
2023/05/12 11:49:00;;;;;;;;;;;;;;;;;;4964840;28;20375;-65
2023/05/12 11:51:28;;;;;;;;;;;;;;;;;;4944239;28;20410;-63
2023/05/12 11:53:53;;;;;;;;;;;;;;;;;;4974508;28;20001;-63
2023/05/12 11:56:18;;;;;;;;;;;;;;;;;;4959582;28;20266;-62
2023/05/12 11:58:44;;;;;;;;;;;;;;;;;;4963892;28;19926;-63
2023/05/12 12:01:10;;;;;;;;;;;;;;;;;;4950358;28;19960;-62
2023/05/12 12:03:38;;;;;;;;;;;;;;;;;;4968979;28;19945;-63
2023/05/12 12:06:09;;;;;;;;;;;;;;;;;;4963163;28;19936;-64
2023/05/12 12:08:39;;;;;;;;;;;;;;;;;;4975384;28;19917;-62
2023/05/12 12:11:07;;;;;;;;;;;;;;;;;;4961128;28;19918;-62
2023/05/12 12:13:32;;;;;;;;;;;;;;;;;;4959707;28;19926;-63
2023/05/12 12:16:00;;;;;;;;;;;;;;;;;;4958753;28;19925;-63
2023/05/12 12:18:28;;;;;;;;;;;;;;;;;;4958344;28;19917;-63
2023/05/12 12:20:55;;;;;;;;;;;;;;;;;;4973730;28;19945;-63
2023/05/12 12:23:20;;;;;;;;;;;;;;;;;;4974882;28;21526;-62
2023/05/12 12:25:46;;;;;;;;;;;;;;;;;;4961086;28;19918;-64
2023/05/12 12:28:16;;;;;;;;;;;;;;;;;;4958454;28;19918;-62
2023/05/12 12:30:41;;;;;;;;;;;;;;;;;;4977443;28;20029;-63
2023/05/12 12:33:07;;;;;;;;;;;;;;;;;;4960025;28;19921;-63
2023/05/12 12:35:32;;;;;;;;;;;;;;;;;;4949256;28;19918;-65
2023/05/12 12:37:58;;;;;;;;;;;;;;;;;;4960830;28;20028;-63
2023/05/12 12:40:23;;;;;;;;;;;;;;;;;;4966428;28;19917;-66
2023/05/12 12:42:53;;;;;;;;;;;;;;;;;;4960722;28;20392;-63
2023/05/12 12:45:19;;;;;;;;;;;;;;;;;;4976235;28;19969;-63
2023/05/12 12:47:46;;;;;;;;;;;;;;;;;;4948276;28;20018;-64
2023/05/12 12:50:12;;;;;;;;;;;;;;;;;;4975156;28;19922;-63
2023/05/12 12:52:37;;;;;;;;;;;;;;;;;;4976839;28;19948;-62
2023/05/12 12:55:05;;;;;;;;;;;;;;;;;;4977543;28;19948;-62
2023/05/12 12:57:32;;;;;;;;;;;;;;;;;;4977130;28;20191;-63
2023/05/12 12:59:58;;;;;;;;;;;;;;;;;;4977928;28;19917;-62
2023/05/12 13:02:25;;;;;;;;;;;;;;;;;;4950041;28;20499;-63
2023/05/12 13:04:53;;;;;;;;;;;;;;;;;;4974181;28;19940;-62
2023/05/12 13:07:23;;;;;;;;;;;;;;;;;;4975851;28;19921;-62
2023/05/12 13:09:52;;;;;;;;;;;;;;;;;;4959671;28;20388;-61
2023/05/12 13:12:20;;;;;;;;;;;;;;;;;;4978079;28;20004;-62
2023/05/12 13:14:48;;;;;;;;;;;;;;;;;;4959374;28;19922;-64
2023/05/12 13:17:13;;;;;;;;;;;;;;;;;;4962795;28;19917;-63
2023/05/12 13:19:38;;;;;;;;;;;;;;;;;;4975956;28;20684;-62
2023/05/12 13:22:04;;;;;;;;;;;;;;;;;;4977506;28;20332;-63
2023/05/12 13:24:31;;;;;;;;;;;;;;;;;;4975046;28;20399;-63
2023/05/12 13:26:57;;;;;;;;;;;;;;;;;;4974673;28;20044;-61
2023/05/12 13:29:22;;;;;;;;;;;;;;;;;;4961079;28;20546;-60
2023/05/12 13:31:47;;;;;;;;;;;;;;;;;;4946043;28;20029;-61
2023/05/12 13:34:12;;;;;;;;;;;;;;;;;;4959135;28;20037;-60
2023/05/12 13:36:40;;;;;;;;;;;;;;;;;;4945239;28;19918;-63
2023/05/12 13:39:07;;;;;;;;;;;;;;;;;;4962252;28;19928;-64
2023/05/12 13:41:33;;;;;;;;;;;;;;;;;;4976132;28;19922;-64
2023/05/12 13:43:58;;;;;;;;;;;;;;;;;;4960080;28;20423;-63
2023/05/12 13:46:23;;;;;;;;;;;;;;;;;;4945923;28;21436;-63
2023/05/12 13:48:51;;;;;;;;;;;;;;;;;;4973880;28;20716;-63
2023/05/12 13:51:19;;;;;;;;;;;;;;;;;;4973035;28;19922;-62
2023/05/12 13:53:44;;;;;;;;;;;;;;;;;;4972035;28;20066;-62
2023/05/12 13:56:12;;;;;;;;;;;;;;;;;;4970560;28;20319;-63
2023/05/12 13:58:38;;;;;;;;;;;;;;;;;;4973124;28;20328;-64
2023/05/12 14:01:07;;;;;;;;;;;;;;;;;;4959439;28;20485;-63
2023/05/12 14:03:35;;;;;;;;;;;;;;;;;;4968308;28;21121;-63
2023/05/12 14:06:03;;;;;;;;;;;;;;;;;;4967801;28;20010;-62
2023/05/12 14:08:29;;;;;;;;;;;;;;;;;;4946829;28;20384;-63
2023/05/12 14:10:57;;;;;;;;;;;;;;;;;;4958792;28;19929;-62
2023/05/12 14:13:26;;;;;;;;;;;;;;;;;;4956617;28;20016;-62
2023/05/12 14:15:52;;;;;;;;;;;;;;;;;;4972127;28;19917;-61
2023/05/12 14:18:17;;;;;;;;;;;;;;;;;;4956159;28;20371;-62
2023/05/12 14:20:45;;;;;;;;;;;;;;;;;;4963051;28;20009;-61
2023/05/12 14:23:10;;;;;;;;;;;;;;;;;;4973887;28;19994;-62
2023/05/12 14:25:38;;;;;;;;;;;;;;;;;;4975343;28;19922;-62
2023/05/12 14:28:03;;;;;;;;;;;;;;;;;;4944197;28;19956;-62
2023/05/12 14:30:28;;;;;;;;;;;;;;;;;;4962003;28;20358;-62
2023/05/12 14:32:56;;;;;;;;;;;;;;;;;;4955703;28;20529;-62
2023/05/12 14:35:27;;;;;;;;;;;;;;;;;;4972799;28;19926;-62
2023/05/12 14:37:52;;;;;;;;;;;;;;;;;;4962813;28;19944;-65
2023/05/12 14:40:18;;;;;;;;;;;;;;;;;;4945292;28;20311;-62
2023/05/12 14:42:43;;;;;;;;;;;;;;;;;;4959164;28;19922;-61
2023/05/12 14:45:08;;;;;;;;;;;;;;;;;;4972909;28;20444;-62
2023/05/12 14:47:36;;;;;;;;;;;;;;;;;;4944876;28;20211;-63
2023/05/12 14:50:01;;;;;;;;;;;;;;;;;;4969001;28;19953;-66
2023/05/12 14:52:29;;;;;;;;;;;;;;;;;;4955830;28;20369;-63
2023/05/12 14:54:57;;;;;;;;;;;;;;;;;;4955030;28;19983;-63
2023/05/12 14:57:23;;;;;;;;;;;;;;;;;;4955708;28;20560;-63
2023/05/12 14:59:55;;;;;;;;;;;;;;;;;;4956397;28;20407;-63
2023/05/12 15:02:20;;;;;;;;;;;;;;;;;;4971029;28;20383;-62
2023/05/12 15:04:45;;;;;;;;;;;;;;;;;;4947266;28;20062;-64
2023/05/12 15:07:11;;;;;;;;;;;;;;;;;;4958018;28;19929;-63
2023/05/12 15:09:36;;;;;;;;;;;;;;;;;;4956972;28;20408;-62
2023/05/12 15:12:02;;;;;;;;;;;;;;;;;;4962075;28;19956;-62
2023/05/12 15:14:30;;;;;;;;;;;;;;;;;;4972131;28;20475;-62
2023/05/12 15:16:56;;;;;;;;;;;;;;;;;;4974680;28;19930;-63
2023/05/12 15:19:21;;;;;;;;;;;;;;;;;;4962780;28;20642;-63
2023/05/12 15:21:49;;;;;;;;;;;;;;;;;;4974152;28;19947;-62
2023/05/12 15:24:19;;;;;;;;;;;;;;;;;;4975758;28;19924;-62
2023/05/12 15:26:44;;;;;;;;;;;;;;;;;;4947273;28;19925;-63
2023/05/12 15:29:10;;;;;;;;;;;;;;;;;;4957746;28;19928;-64
2023/05/12 15:31:35;;;;;;;;;;;;;;;;;;4959563;28;20028;-66
2023/05/12 15:34:01;;;;;;;;;;;;;;;;;;4942156;28;19960;-63
2023/05/12 15:36:26;;;;;;;;;;;;;;;;;;4972555;28;19921;-67
2023/05/12 15:38:54;;;;;;;;;;;;;;;;;;4962136;28;20273;-64
2023/05/12 15:41:19;;;;;;;;;;;;;;;;;;4954561;28;19921;-64
2023/05/12 15:43:47;;;;;;;;;;;;;;;;;;4969511;28;19945;-65
2023/05/12 15:46:15;;;;;;;;;;;;;;;;;;4945492;28;19921;-64
2023/05/12 15:48:43;;;;;;;;;;;;;;;;;;4956454;28;20024;-63
2023/05/12 15:51:08;;;;;;;;;;;;;;;;;;4971524;28;20309;-64
2023/05/12 15:53:33;;;;;;;;;;;;;;;;;;4965887;28;20340;-64
2023/05/12 15:55:58;;;;;;;;;;;;;;;;;;4956495;28;20397;-63
2023/05/12 15:58:27;;;;;;;;;;;;;;;;;;4946466;28;20500;-63
2023/05/12 16:00:54;;;;;;;;;;;;;;;;;;4970962;28;19922;-63
2023/05/12 16:03:20;;;;;;;;;;;;;;;;;;4957452;28;19925;-63
2023/05/12 16:05:45;;;;;;;;;;;;;;;;;;4973242;28;19926;-65
2023/05/12 16:08:10;;;;;;;;;;;;;;;;;;4964243;28;19932;-63
2023/05/12 16:10:38;;;;;;;;;;;;;;;;;;4962685;28;20366;-63
2023/05/12 16:13:04;;;;;;;;;;;;;;;;;;4968828;28;19976;-62
2023/05/12 16:15:30;;;;;;;;;;;;;;;;;;4961166;28;20609;-62
2023/05/12 16:17:55;;;;;;;;;;;;;;;;;;4964315;28;19929;-63
2023/05/12 16:20:20;;;;;;;;;;;;;;;;;;4949793;28;19922;-64
2023/05/12 16:22:47;;;;;;;;;;;;;;;;;;4958446;28;19947;-65
2023/05/12 16:25:12;;;;;;;;;;;;;;;;;;4975492;28;20303;-65
2023/05/12 16:27:37;;;;;;;;;;;;;;;;;;4976207;28;19917;-63
2023/05/12 16:30:05;;;;;;;;;;;;;;;;;;4962723;28;19926;-63
2023/05/12 16:32:31;;;;;;;;;;;;;;;;;;4957535;28;20016;-63
2023/05/12 16:34:56;;;;;;;;;;;;;;;;;;4947687;28;19922;-65
2023/05/12 16:37:21;;;;;;;;;;;;;;;;;;4977218;28;21144;-63
2023/05/12 16:39:49;;;;;;;;;;;;;;;;;;4960372;28;19918;-65